To NAV CANADA Home Page Login to a new session Search on AWWS site Disclaimer Vers la page française équivalente Tips FAQ What's new on the site To the Forecasts and Observations / NOTAM section To "File a Flight Plan" website Publications and other links Update of the User's profile FIC Telephone Numbers My Weather Data Folder Route Weather Data Regional Weather Data Local Weather Data To the Forecasts and Observations / NOTAM section
Request Generated 12/12/2018 at 02:49:48 UTC . Weather information available at that time is displayed.

METAR/TAF

CAPE DORSET/NU    (show WxCam)

METAR CYTE 120200Z AUTO 24028G39KT 1/2SM SN BLSN OVC013 M10/M12 A2955 RMK SLP013=
METAR CYTE 120100Z AUTO 26034G42KT 3/4SM -SN OVC013 M10/M12 A2957 RMK SLP020=
METAR CYTE 120000Z AUTO 24028G43KT 1/2SM SN OVC014 M10/M11 A2960 RMK SLP029=

TAF CYTE 120038Z 1201/1213 24030G40KT 1/2SM -SN BLSN OVC015
RMK FCST BASED ON AUTO OBS. NXT FCST BY 120700Z=
Your time UTC time
Weather data provided by Environment Canada and NAV CANADA